createdAt,value
2022-09-07T00:01:05.997Z,77.70
2022-09-07T00:03:34.507Z,77.00
2022-09-07T00:06:07.624Z,77.00
2022-09-07T00:08:35.762Z,77.20
2022-09-07T00:11:08.037Z,76.20
2022-09-07T00:13:38.149Z,75.40
2022-09-07T00:16:07.525Z,75.20
2022-09-07T00:18:36.138Z,74.90
2022-09-07T00:21:06.387Z,76.30
2022-09-07T00:23:35.677Z,80.10
2022-09-07T00:26:09.333Z,79.60
2022-09-07T00:28:38.872Z,79.00
2022-09-07T00:31:11.629Z,82.80
2022-09-07T00:33:40.020Z,81.60
2022-09-07T00:38:37.011Z,80.80
2022-09-07T00:41:07.027Z,79.80
2022-09-07T00:43:37.253Z,78.40
2022-09-07T00:46:07.022Z,80.30
2022-09-07T00:48:40.044Z,81.70
2022-09-07T00:51:11.796Z,82.60
2022-09-07T00:53:44.476Z,85.90
2022-09-07T00:56:15.085Z,89.80
2022-09-07T00:58:45.008Z,91.50
2022-09-07T01:01:14.617Z,92.70
2022-09-07T01:03:46.586Z,94.10
2022-09-07T01:06:18.373Z,94.20
2022-09-07T01:08:49.799Z,94.40
2022-09-07T01:11:22.932Z,96.00
2022-09-07T01:13:52.572Z,99.70
2022-09-07T01:16:39.099Z,99.90
2022-09-07T01:19:25.743Z,99.90
2022-09-07T01:22:05.805Z,99.90
2022-09-07T01:24:42.942Z,99.90
2022-09-07T01:27:53.516Z,99.90
2022-09-07T01:30:23.929Z,99.90
2022-09-07T01:33:28.864Z,99.90
2022-09-07T01:36:05.886Z,99.90
2022-09-07T01:38:39.568Z,99.90
2022-09-07T01:41:12.605Z,99.90
2022-09-07T01:43:48.587Z,99.90
2022-09-07T01:46:22.392Z,99.90
2022-09-07T01:48:53.957Z,99.40
2022-09-07T01:51:24.236Z,99.90
2022-09-07T01:53:58.451Z,99.90
2022-09-07T01:56:32.548Z,99.90
2022-09-07T01:59:06.999Z,99.90
2022-09-07T02:01:41.409Z,99.90
2022-09-07T02:04:12.832Z,99.90
2022-09-07T02:06:47.087Z,99.90
2022-09-07T02:09:21.730Z,99.90
2022-09-07T02:11:50.748Z,99.90
2022-09-07T02:14:25.855Z,99.90
2022-09-07T02:17:01.480Z,99.90
2022-09-07T02:19:35.008Z,99.90
2022-09-07T02:22:11.202Z,99.90
2022-09-07T02:24:42.672Z,99.90
2022-09-07T02:27:16.151Z,99.90
2022-09-07T02:29:46.192Z,99.90
2022-09-07T02:32:14.324Z,99.90
2022-09-07T02:34:42.456Z,99.90
2022-09-07T02:37:12.197Z,99.90
2022-09-07T02:39:40.559Z,99.90
2022-09-07T02:42:08.959Z,99.90
2022-09-07T02:44:40.466Z,99.90
2022-09-07T02:47:21.648Z,99.90
2022-09-07T02:50:12.280Z,99.90
2022-09-07T02:52:48.345Z,99.90
2022-09-07T02:55:27.045Z,99.90
2022-09-07T02:58:08.081Z,99.90
2022-09-07T03:00:43.696Z,99.90
2022-09-07T03:03:22.313Z,99.90
2022-09-07T03:05:53.421Z,99.90
2022-09-07T03:08:25.730Z,99.90
2022-09-07T03:10:55.304Z,99.90
2022-09-07T03:13:25.214Z,99.90
2022-09-07T03:15:56.026Z,99.90
2022-09-07T03:18:26.959Z,99.90
2022-09-07T03:20:55.456Z,99.90
2022-09-07T03:23:24.252Z,99.90
2022-09-07T03:25:52.736Z,99.90
2022-09-07T03:28:20.888Z,99.90
2022-09-07T03:30:49.154Z,99.90
2022-09-07T03:33:18.224Z,99.90
2022-09-07T03:35:57.700Z,99.90
2022-09-07T03:38:25.874Z,99.90
2022-09-07T03:41:00.096Z,99.90
2022-09-07T03:43:28.406Z,99.90
2022-09-07T03:46:00.295Z,99.90
2022-09-07T03:48:28.837Z,99.90
2022-09-07T03:51:00.075Z,99.90
2022-09-07T03:53:28.662Z,99.90
2022-09-07T03:55:58.376Z,99.90
2022-09-07T03:58:26.616Z,99.90
2022-09-07T04:00:54.922Z,99.90
2022-09-07T04:03:23.252Z,99.90
2022-09-07T04:05:51.389Z,99.90
2022-09-07T04:08:20.977Z,99.90
2022-09-07T04:10:49.119Z,99.90
2022-09-07T04:13:17.350Z,99.90
2022-09-07T04:15:45.551Z,99.90
2022-09-07T04:18:13.681Z,99.90
2022-09-07T04:20:41.878Z,99.90
2022-09-07T04:23:09.981Z,99.90
2022-09-07T04:25:40.049Z,99.90
2022-09-07T04:28:08.211Z,99.90
2022-09-07T04:30:37.143Z,99.90
2022-09-07T04:33:05.440Z,99.90
2022-09-07T04:35:37.476Z,99.90
2022-09-07T04:38:06.385Z,99.90
2022-09-07T04:40:36.017Z,99.90
2022-09-07T04:43:08.172Z,99.90
2022-09-07T04:45:37.697Z,99.90
2022-09-07T04:48:06.311Z,99.90
2022-09-07T04:50:35.020Z,99.90
2022-09-07T04:53:03.251Z,99.90
2022-09-07T04:55:32.582Z,99.90
2022-09-07T04:58:00.721Z,99.90
2022-09-07T05:00:30.393Z,99.90
2022-09-07T05:02:58.668Z,99.90
2022-09-07T05:07:55.235Z,99.90
2022-09-07T05:12:52.384Z,99.90
2022-09-07T05:15:20.557Z,99.90
2022-09-07T05:17:50.147Z,99.90
2022-09-07T05:20:20.467Z,99.90
2022-09-07T05:22:48.758Z,99.90
2022-09-07T05:25:17.089Z,99.90
2022-09-07T05:33:05.284Z,99.90
2022-09-07T05:35:33.414Z,99.90
2022-09-07T05:38:01.546Z,99.90
2022-09-07T05:40:36.095Z,99.90
2022-09-07T05:43:06.660Z,99.90
2022-09-07T05:45:34.863Z,99.90
2022-09-07T05:48:04.615Z,99.90
2022-09-07T05:55:31.894Z,99.90
2022-09-07T06:00:29.172Z,99.90
2022-09-07T06:05:27.388Z,99.90
2022-09-07T06:13:12.359Z,99.90
2022-09-07T06:18:09.398Z,99.90
2022-09-07T06:20:39.011Z,99.90
2022-09-07T06:23:07.512Z,99.90
2022-09-07T06:25:35.641Z,99.90
2022-09-07T06:28:04.259Z,99.90
2022-09-07T06:33:00.820Z,99.90
2022-09-07T06:35:28.923Z,99.90
2022-09-07T06:37:58.452Z,99.90
2022-09-07T06:40:26.681Z,99.90
2022-09-07T06:42:54.792Z,99.90
2022-09-07T06:45:22.988Z,99.90
2022-09-07T06:47:54.905Z,99.90
2022-09-07T06:50:23.141Z,99.90
2022-09-07T06:55:45.713Z,99.90
2022-09-07T06:58:13.819Z,99.90
2022-09-07T07:00:42.008Z,99.90
2022-09-07T07:03:10.239Z,99.90
2022-09-07T07:05:38.392Z,99.90
2022-09-07T07:08:06.579Z,99.90
2022-09-07T07:10:39.980Z,99.90
2022-09-07T07:13:09.522Z,99.90
2022-09-07T07:15:37.666Z,99.90
2022-09-07T07:18:20.526Z,99.90
2022-09-07T07:20:49.458Z,99.90
2022-09-07T07:23:17.636Z,99.90
2022-09-07T07:25:45.750Z,99.90
2022-09-07T07:31:10.386Z,99.90
2022-09-07T07:33:40.488Z,99.90
2022-09-07T07:36:13.934Z,99.90
2022-09-07T07:44:20.455Z,99.90
2022-09-07T07:46:49.651Z,99.90
2022-09-07T07:49:17.849Z,99.90
2022-09-07T07:54:36.830Z,99.90
2022-09-07T07:57:05.429Z,99.90
2022-09-07T07:59:35.012Z,99.90
2022-09-07T08:02:05.353Z,99.90
2022-09-07T08:04:34.551Z,99.90
2022-09-07T08:07:09.219Z,99.90
2022-09-07T08:09:39.090Z,99.90
2022-09-07T08:12:07.369Z,99.90
2022-09-07T08:14:40.813Z,99.90
2022-09-07T08:17:09.711Z,99.90
2022-09-07T08:19:37.780Z,99.90
2022-09-07T08:22:06.048Z,99.90
2022-09-07T08:24:34.184Z,99.90
2022-09-07T08:27:02.192Z,99.90
2022-09-07T08:29:33.804Z,99.90
2022-09-07T08:32:06.472Z,99.90
2022-09-07T08:34:36.910Z,99.90
2022-09-07T08:37:05.241Z,99.90
2022-09-07T08:39:33.282Z,99.90
2022-09-07T08:42:25.744Z,99.90
2022-09-07T08:45:00.827Z,99.90
2022-09-07T08:47:37.469Z,99.90
2022-09-07T08:50:11.552Z,99.90
2022-09-07T08:52:49.977Z,99.90
2022-09-07T08:55:22.440Z,99.90
2022-09-07T08:57:55.333Z,99.90
2022-09-07T09:00:23.590Z,99.90
2022-09-07T09:05:46.604Z,99.90
2022-09-07T09:08:28.673Z,99.90
2022-09-07T09:11:05.176Z,99.90
2022-09-07T09:13:48.263Z,99.90
2022-09-07T09:16:23.197Z,99.90
2022-09-07T09:19:06.130Z,99.90
2022-09-07T09:21:36.088Z,99.90
2022-09-07T09:24:15.562Z,99.90
2022-09-07T09:26:46.573Z,99.90
2022-09-07T09:29:15.634Z,99.90
2022-09-07T09:31:43.781Z,99.90
2022-09-07T09:34:15.663Z,99.90
2022-09-07T09:36:48.648Z,99.90
2022-09-07T09:39:31.773Z,99.90
2022-09-07T09:42:14.303Z,99.90
2022-09-07T09:44:43.564Z,99.90
2022-09-07T09:47:30.588Z,99.90
2022-09-07T09:50:06.279Z,99.90
2022-09-07T09:52:47.679Z,99.90
2022-09-07T09:55:35.829Z,99.90
2022-09-07T10:06:23.384Z,99.90
2022-09-07T10:08:57.407Z,99.90
2022-09-07T10:14:34.448Z,99.90
2022-09-07T10:17:11.281Z,99.90
2022-09-07T10:19:41.558Z,99.90
2022-09-07T10:22:25.762Z,99.90
2022-09-07T10:24:53.684Z,99.90
2022-09-07T10:27:29.960Z,99.90
2022-09-07T10:29:58.149Z,99.90
2022-09-07T10:32:37.792Z,99.90
2022-09-07T10:35:14.982Z,99.90
2022-09-07T10:37:57.041Z,99.90
2022-09-07T10:40:36.691Z,98.90
2022-09-07T10:43:39.504Z,97.90
2022-09-07T10:46:58.922Z,99.90
2022-09-07T10:49:36.529Z,99.90
2022-09-07T10:52:18.468Z,97.80
2022-09-07T10:54:55.127Z,97.30
2022-09-07T10:57:49.046Z,96.40
2022-09-07T11:00:19.658Z,99.90
2022-09-07T11:03:29.576Z,97.20
2022-09-07T11:06:16.179Z,95.10
2022-09-07T11:09:16.927Z,94.50
2022-09-07T11:12:07.252Z,93.40
2022-09-07T11:14:41.908Z,91.60
2022-09-07T11:17:19.597Z,92.30
2022-09-07T11:19:53.491Z,92.10
2022-09-07T11:22:31.067Z,91.10
2022-09-07T11:28:01.320Z,90.00
2022-09-07T11:30:34.260Z,91.20
2022-09-07T11:33:07.702Z,90.30
2022-09-07T11:35:45.603Z,90.90
2022-09-07T11:38:26.728Z,87.40
2022-09-07T11:41:06.328Z,88.50
2022-09-07T11:43:41.381Z,87.70
2022-09-07T11:46:14.306Z,90.30
2022-09-07T11:48:46.460Z,87.80
2022-09-07T11:51:20.920Z,89.10
2022-09-07T11:53:54.056Z,87.90
2022-09-07T11:56:27.937Z,86.20
2022-09-07T11:59:36.187Z,87.60
2022-09-07T12:02:57.823Z,83.80
2022-09-07T12:05:32.368Z,85.80
2022-09-07T12:08:15.935Z,83.40
2022-09-07T12:11:01.114Z,79.90
2022-09-07T12:13:53.151Z,83.70
2022-09-07T12:16:34.024Z,82.40
2022-09-07T12:19:18.513Z,81.80
2022-09-07T12:21:50.442Z,82.40
2022-09-07T12:24:43.235Z,81.10
2022-09-07T12:27:31.464Z,80.20
2022-09-07T12:30:52.038Z,80.90
2022-09-07T12:33:41.553Z,83.70
2022-09-07T12:36:42.824Z,84.20
2022-09-07T12:39:25.054Z,86.30
2022-09-07T12:44:43.420Z,87.00
2022-09-07T12:47:29.307Z,86.90
2022-09-07T12:50:22.565Z,85.80
2022-09-07T12:53:17.479Z,86.00
2022-09-07T12:59:06.272Z,85.90
2022-09-07T13:01:47.231Z,84.30
2022-09-07T13:04:43.274Z,80.90
2022-09-07T13:07:42.919Z,81.70
2022-09-07T13:10:33.752Z,79.90
2022-09-07T13:13:07.371Z,80.00
2022-09-07T13:15:40.981Z,79.00
2022-09-07T13:18:15.205Z,80.60
2022-09-07T13:20:43.201Z,82.00
2022-09-07T13:23:22.988Z,79.80
2022-09-07T13:26:03.367Z,80.70
2022-09-07T13:28:52.622Z,80.70
2022-09-07T13:31:42.986Z,81.00
2022-09-07T13:34:43.258Z,78.50
2022-09-07T13:37:17.926Z,78.40
2022-09-07T13:39:48.582Z,77.70
2022-09-07T13:42:21.077Z,77.20
2022-09-07T13:44:57.202Z,78.10
2022-09-07T13:47:45.261Z,77.10
2022-09-07T13:50:22.819Z,76.60
2022-09-07T13:53:18.423Z,77.20
2022-09-07T13:55:56.021Z,78.00
2022-09-07T13:58:29.663Z,77.60
2022-09-07T14:01:00.995Z,76.80
2022-09-07T14:03:37.757Z,75.80
2022-09-07T14:06:16.241Z,76.60
2022-09-07T14:08:49.410Z,76.20
2022-09-07T14:11:22.355Z,76.60
2022-09-07T14:14:10.576Z,75.50
2022-09-07T14:16:39.213Z,73.00
2022-09-07T14:19:18.456Z,70.70
2022-09-07T14:21:58.471Z,72.00
2022-09-07T14:24:32.723Z,71.20
2022-09-07T14:27:01.568Z,69.30
2022-09-07T14:29:32.677Z,71.00
2022-09-07T14:32:02.853Z,72.70
2022-09-07T14:34:34.963Z,72.80
2022-09-07T14:37:08.101Z,72.60
2022-09-07T14:39:40.132Z,71.90
2022-09-07T14:42:11.563Z,72.10
2022-09-07T14:44:43.110Z,73.40
2022-09-07T14:47:25.045Z,71.20
2022-09-07T14:49:55.641Z,70.50
2022-09-07T14:52:32.763Z,71.20
2022-09-07T14:55:03.020Z,71.00
2022-09-07T14:57:32.468Z,71.40
2022-09-07T15:00:20.560Z,70.90
2022-09-07T15:02:48.563Z,72.70
2022-09-07T15:05:25.770Z,70.80
2022-09-07T15:07:56.423Z,73.40
2022-09-07T15:10:35.233Z,73.90
2022-09-07T15:13:04.440Z,75.60
2022-09-07T15:15:37.189Z,73.60
2022-09-07T15:18:26.928Z,73.90
2022-09-07T15:20:54.974Z,71.20
2022-09-07T15:23:23.024Z,74.60
2022-09-07T15:25:54.108Z,73.90
2022-09-07T15:34:09.908Z,75.30
2022-09-07T15:36:40.301Z,74.10
2022-09-07T15:39:08.895Z,76.60
2022-09-07T15:41:36.883Z,76.50
2022-09-07T15:44:05.185Z,76.50
2022-09-07T15:46:36.689Z,74.30
2022-09-07T15:49:05.515Z,74.70
2022-09-07T15:54:21.536Z,74.40
2022-09-07T15:59:37.839Z,76.80
2022-09-07T16:03:04.714Z,76.90
2022-09-07T16:04:56.027Z,79.50
2022-09-07T16:08:24.678Z,76.90
2022-09-07T16:10:13.720Z,76.20
2022-09-07T16:15:29.908Z,76.20
2022-09-07T16:17:59.358Z,77.40
2022-09-07T16:20:32.022Z,79.40
2022-09-07T16:23:17.061Z,79.70
2022-09-07T16:25:56.295Z,79.50
2022-09-07T16:28:24.321Z,77.40
2022-09-07T16:30:52.414Z,80.30
2022-09-07T16:33:25.220Z,80.10
2022-09-07T16:35:59.526Z,78.20
2022-09-07T16:38:44.536Z,78.10
2022-09-07T16:41:15.025Z,76.80
2022-09-07T16:43:43.621Z,76.90
2022-09-07T16:46:15.225Z,76.90
2022-09-07T16:48:45.259Z,76.80
2022-09-07T16:51:15.130Z,78.10
2022-09-07T16:53:43.351Z,77.10
2022-09-07T16:56:13.092Z,78.50
2022-09-07T16:58:42.939Z,78.00
2022-09-07T17:01:12.804Z,78.20
2022-09-07T17:03:41.217Z,77.10
2022-09-07T17:06:12.464Z,78.30
2022-09-07T17:08:41.189Z,77.20
2022-09-07T17:11:10.883Z,78.30
2022-09-07T17:13:40.507Z,78.30
2022-09-07T17:16:10.586Z,79.40
2022-09-07T17:21:33.276Z,79.20
2022-09-07T17:24:04.191Z,79.90
2022-09-07T17:26:33.326Z,80.30
2022-09-07T17:29:01.647Z,82.70
2022-09-07T17:34:19.784Z,85.60
2022-09-07T17:36:49.279Z,85.40
2022-09-07T17:39:18.890Z,86.90
2022-09-07T17:41:47.692Z,88.10
2022-09-07T17:44:15.782Z,89.50
2022-09-07T17:46:43.844Z,91.70
2022-09-07T17:49:14.423Z,92.40
2022-09-07T17:51:42.708Z,93.90
2022-09-07T17:54:14.617Z,94.70
2022-09-07T17:56:43.081Z,95.30
2022-09-07T18:01:59.416Z,96.90
2022-09-07T18:04:28.665Z,97.60
2022-09-07T18:06:56.940Z,98.10
2022-09-07T18:09:26.277Z,99.40
2022-09-07T18:11:54.304Z,99.90
2022-09-07T18:14:22.282Z,99.90
2022-09-07T18:16:51.334Z,99.90
2022-09-07T18:19:20.020Z,99.90
2022-09-07T18:21:48.871Z,99.90
2022-09-07T18:24:19.395Z,99.90
2022-09-07T18:26:51.811Z,99.90
2022-09-07T18:29:36.890Z,99.90
2022-09-07T18:32:08.915Z,99.90
2022-09-07T18:34:38.169Z,99.90
2022-09-07T18:37:06.807Z,99.90
2022-09-07T18:39:35.747Z,99.90
2022-09-07T18:42:05.740Z,99.90
2022-09-07T18:47:28.053Z,99.90
2022-09-07T18:49:57.006Z,99.90
2022-09-07T18:55:13.620Z,99.90
2022-09-07T18:57:43.226Z,99.90
2022-09-07T19:00:13.749Z,99.90
2022-09-07T19:02:42.231Z,99.90
2022-09-07T19:07:59.583Z,99.90
2022-09-07T19:10:27.721Z,99.90
2022-09-07T19:12:57.556Z,99.90
2022-09-07T19:15:25.528Z,99.90
2022-09-07T19:17:53.516Z,99.90
2022-09-07T19:20:21.554Z,99.90
2022-09-07T19:22:49.535Z,99.90
2022-09-07T19:25:19.310Z,99.90
2022-09-07T19:27:47.311Z,99.90
2022-09-07T19:30:17.401Z,99.90
2022-09-07T19:32:45.561Z,99.90
2022-09-07T19:35:13.694Z,99.90
2022-09-07T19:37:41.722Z,99.90
2022-09-07T19:40:14.739Z,99.90
2022-09-07T19:42:46.635Z,99.90
2022-09-07T19:45:16.150Z,99.90
2022-09-07T19:47:44.302Z,99.90
2022-09-07T19:50:12.292Z,99.90
2022-09-07T19:52:40.385Z,99.90
2022-09-07T19:55:09.675Z,99.90
2022-09-07T19:57:37.646Z,99.90
2022-09-07T20:00:06.699Z,99.90
2022-09-07T20:02:36.073Z,99.90
2022-09-07T20:05:04.160Z,99.90
2022-09-07T20:07:32.182Z,99.90
2022-09-07T20:10:00.183Z,99.90
2022-09-07T20:12:28.203Z,99.90
2022-09-07T20:14:56.155Z,99.90
2022-09-07T20:17:24.198Z,99.90
2022-09-07T20:19:53.575Z,99.90
2022-09-07T20:22:21.611Z,99.90
2022-09-07T20:24:49.562Z,99.90
2022-09-07T20:27:17.539Z,99.90
2022-09-07T20:29:45.585Z,99.90
2022-09-07T20:32:13.555Z,99.90
2022-09-07T20:34:41.521Z,99.90
2022-09-07T20:37:10.918Z,99.90
2022-09-07T20:39:39.684Z,99.90
2022-09-07T20:42:08.768Z,99.90
2022-09-07T20:44:36.852Z,99.90
2022-09-07T20:47:05.250Z,99.90
2022-09-07T20:49:33.236Z,99.90
2022-09-07T20:52:01.225Z,99.90
2022-09-07T20:54:30.567Z,99.90
2022-09-07T20:57:02.135Z,99.90
2022-09-07T20:59:31.928Z,99.90
2022-09-07T21:02:00.034Z,99.90
2022-09-07T21:04:28.055Z,99.90
2022-09-07T21:06:56.017Z,99.90
2022-09-07T21:09:24.023Z,99.90
2022-09-07T21:11:56.826Z,99.90
2022-09-07T21:14:25.327Z,99.90
2022-09-07T21:16:53.280Z,99.90
2022-09-07T21:19:21.463Z,99.90
2022-09-07T21:21:49.458Z,99.90
2022-09-07T21:24:19.159Z,99.90
2022-09-07T21:26:47.577Z,99.90
2022-09-07T21:29:19.623Z,99.90
2022-09-07T21:31:48.432Z,99.90
2022-09-07T21:34:17.289Z,99.90
2022-09-07T21:36:46.067Z,99.90
2022-09-07T21:39:14.829Z,99.90
2022-09-07T21:41:43.332Z,99.90
2022-09-07T21:44:13.844Z,99.90
2022-09-07T21:46:44.339Z,99.90
2022-09-07T21:49:12.653Z,99.90
2022-09-07T21:51:40.806Z,99.90
2022-09-07T21:54:09.095Z,99.90
2022-09-07T21:56:37.407Z,99.90
2022-09-07T21:59:06.261Z,99.90
2022-09-07T22:01:34.322Z,99.90
2022-09-07T22:04:07.005Z,99.90
2022-09-07T22:06:35.901Z,99.90
2022-09-07T22:09:04.970Z,99.90
2022-09-07T22:11:33.180Z,99.90
2022-09-07T22:14:03.213Z,99.90
2022-09-07T22:16:32.058Z,99.90
2022-09-07T22:19:00.369Z,99.90
2022-09-07T22:21:30.809Z,99.90
2022-09-07T22:24:00.670Z,99.90
2022-09-07T22:26:30.699Z,99.90
2022-09-07T22:29:00.014Z,99.90
2022-09-07T22:31:30.234Z,99.90
2022-09-07T22:34:00.270Z,99.90
2022-09-07T22:36:32.295Z,99.90
2022-09-07T22:39:02.477Z,99.90
2022-09-07T22:41:33.189Z,99.90
2022-09-07T22:44:01.792Z,99.90
2022-09-07T22:46:31.647Z,99.90
2022-09-07T22:49:00.059Z,99.90
2022-09-07T22:51:29.469Z,99.90
2022-09-07T22:53:57.878Z,99.90
2022-09-07T22:56:27.748Z,99.90
2022-09-07T22:58:57.319Z,99.90
2022-09-07T23:01:25.947Z,99.90
2022-09-07T23:03:54.488Z,99.90
2022-09-07T23:06:24.557Z,99.90
2022-09-07T23:08:55.428Z,99.90
2022-09-07T23:11:24.252Z,99.90
2022-09-07T23:13:53.025Z,99.90
2022-09-07T23:18:50.192Z,99.90
2022-09-07T23:21:18.257Z,99.90
2022-09-07T23:23:50.458Z,99.90
2022-09-07T23:26:20.327Z,99.90
2022-09-07T23:28:52.553Z,99.90
2022-09-07T23:31:21.043Z,99.90
2022-09-07T23:33:49.347Z,99.90
2022-09-07T23:36:18.358Z,99.90
2022-09-07T23:41:15.341Z,99.90
2022-09-07T23:43:45.128Z,99.90
2022-09-07T23:46:14.270Z,99.90
2022-09-07T23:48:44.577Z,99.90
2022-09-07T23:51:12.872Z,99.90
2022-09-07T23:53:41.333Z,99.90
2022-09-07T23:56:10.124Z,99.90
